sensor_id;sensor_type;location;lat;lon;timestamp;temperature;humidity
57282;DHT22;43129;52.628;10.098;2023-05-14T00:01:54;13.20;68.10
57282;DHT22;43129;52.628;10.098;2023-05-14T00:04:22;13.20;68.50
57282;DHT22;43129;52.628;10.098;2023-05-14T00:06:47;13.20;68.40
57282;DHT22;43129;52.628;10.098;2023-05-14T00:09:13;13.20;68.80
57282;DHT22;43129;52.628;10.098;2023-05-14T00:11:41;13.20;68.90
57282;DHT22;43129;52.628;10.098;2023-05-14T00:14:09;13.10;68.90
57282;DHT22;43129;52.628;10.098;2023-05-14T00:16:37;13.10;68.70
57282;DHT22;43129;52.628;10.098;2023-05-14T00:19:02;13.10;68.60
57282;DHT22;43129;52.628;10.098;2023-05-14T00:21:30;13.20;68.70
57282;DHT22;43129;52.628;10.098;2023-05-14T00:23:59;13.10;69.50
57282;DHT22;43129;52.628;10.098;2023-05-14T00:26:24;13.10;70.00
57282;DHT22;43129;52.628;10.098;2023-05-14T00:28:53;13.00;70.10
57282;DHT22;43129;52.628;10.098;2023-05-14T00:31:24;12.90;70.60
57282;DHT22;43129;52.628;10.098;2023-05-14T00:33:52;12.90;71.00
57282;DHT22;43129;52.628;10.098;2023-05-14T00:36:18;12.90;71.20
57282;DHT22;43129;52.628;10.098;2023-05-14T00:38:45;12.90;71.50
57282;DHT22;43129;52.628;10.098;2023-05-14T00:41:11;12.80;71.70
57282;DHT22;43129;52.628;10.098;2023-05-14T00:43:37;12.80;71.60
57282;DHT22;43129;52.628;10.098;2023-05-14T00:46:02;12.80;71.30
57282;DHT22;43129;52.628;10.098;2023-05-14T00:48:28;12.80;71.30
57282;DHT22;43129;52.628;10.098;2023-05-14T00:50:54;12.80;71.50
57282;DHT22;43129;52.628;10.098;2023-05-14T00:53:22;12.70;72.10
57282;DHT22;43129;52.628;10.098;2023-05-14T00:55:48;12.70;72.40
57282;DHT22;43129;52.628;10.098;2023-05-14T00:58:14;12.70;72.40
57282;DHT22;43129;52.628;10.098;2023-05-14T01:00:40;12.70;72.00
57282;DHT22;43129;52.628;10.098;2023-05-14T01:03:08;12.70;72.20
57282;DHT22;43129;52.628;10.098;2023-05-14T01:11:16;12.60;71.50
57282;DHT22;43129;52.628;10.098;2023-05-14T01:16:19;12.50;71.90
57282;DHT22;43129;52.628;10.098;2023-05-14T01:18:45;12.50;71.80
57282;DHT22;43129;52.628;10.098;2023-05-14T01:21:42;12.50;72.00
57282;DHT22;43129;52.628;10.098;2023-05-14T01:24:08;12.40;72.10
57282;DHT22;43129;52.628;10.098;2023-05-14T01:26:36;12.40;72.50
57282;DHT22;43129;52.628;10.098;2023-05-14T01:29:12;12.30;73.40
57282;DHT22;43129;52.628;10.098;2023-05-14T01:31:43;12.30;72.80
57282;DHT22;43129;52.628;10.098;2023-05-14T01:34:11;12.30;73.10
57282;DHT22;43129;52.628;10.098;2023-05-14T01:36:38;12.20;73.20
57282;DHT22;43129;52.628;10.098;2023-05-14T01:39:05;12.20;73.50
57282;DHT22;43129;52.628;10.098;2023-05-14T01:41:51;12.10;74.00
57282;DHT22;43129;52.628;10.098;2023-05-14T01:44:18;12.10;74.30
57282;DHT22;43129;52.628;10.098;2023-05-14T01:46:43;12.00;74.50
57282;DHT22;43129;52.628;10.098;2023-05-14T01:49:09;12.00;74.60
57282;DHT22;43129;52.628;10.098;2023-05-14T01:51:37;11.90;75.00
57282;DHT22;43129;52.628;10.098;2023-05-14T01:54:07;11.90;75.50
57282;DHT22;43129;52.628;10.098;2023-05-14T01:56:33;11.90;75.50
57282;DHT22;43129;52.628;10.098;2023-05-14T01:59:01;11.90;75.90
57282;DHT22;43129;52.628;10.098;2023-05-14T02:01:29;11.80;76.10
57282;DHT22;43129;52.628;10.098;2023-05-14T02:04:00;11.80;76.10
57282;DHT22;43129;52.628;10.098;2023-05-14T02:06:26;11.80;76.30
57282;DHT22;43129;52.628;10.098;2023-05-14T02:08:54;11.80;76.40
57282;DHT22;43129;52.628;10.098;2023-05-14T02:11:22;11.70;76.70
57282;DHT22;43129;52.628;10.098;2023-05-14T02:13:52;11.70;76.80
57282;DHT22;43129;52.628;10.098;2023-05-14T02:16:22;11.70;77.00
57282;DHT22;43129;52.628;10.098;2023-05-14T02:18:50;11.70;77.00
57282;DHT22;43129;52.628;10.098;2023-05-14T02:21:18;11.70;77.40
57282;DHT22;43129;52.628;10.098;2023-05-14T02:23:44;11.70;77.40
57282;DHT22;43129;52.628;10.098;2023-05-14T02:26:10;11.70;77.60
57282;DHT22;43129;52.628;10.098;2023-05-14T02:28:38;11.70;77.80
57282;DHT22;43129;52.628;10.098;2023-05-14T02:31:04;11.70;78.00
57282;DHT22;43129;52.628;10.098;2023-05-14T02:33:29;11.60;78.00
57282;DHT22;43129;52.628;10.098;2023-05-14T02:35:57;11.60;78.30
57282;DHT22;43129;52.628;10.098;2023-05-14T02:38:25;11.60;78.50
57282;DHT22;43129;52.628;10.098;2023-05-14T02:40:54;11.50;78.80
57282;DHT22;43129;52.628;10.098;2023-05-14T02:43:19;11.40;79.10
57282;DHT22;43129;52.628;10.098;2023-05-14T02:45:45;11.40;79.40
57282;DHT22;43129;52.628;10.098;2023-05-14T02:48:11;11.40;79.30
57282;DHT22;43129;52.628;10.098;2023-05-14T02:50:37;11.40;79.40
57282;DHT22;43129;52.628;10.098;2023-05-14T02:53:02;11.30;79.70
57282;DHT22;43129;52.628;10.098;2023-05-14T02:55:28;11.30;79.90
57282;DHT22;43129;52.628;10.098;2023-05-14T02:57:54;11.20;80.10
57282;DHT22;43129;52.628;10.098;2023-05-14T03:00:22;11.20;80.40
57282;DHT22;43129;52.628;10.098;2023-05-14T03:02:47;11.10;80.70
57282;DHT22;43129;52.628;10.098;2023-05-14T03:05:13;11.10;80.80
57282;DHT22;43129;52.628;10.098;2023-05-14T03:07:39;11.00;81.30
57282;DHT22;43129;52.628;10.098;2023-05-14T03:10:05;11.00;81.70
57282;DHT22;43129;52.628;10.098;2023-05-14T03:12:31;10.90;82.00
57282;DHT22;43129;52.628;10.098;2023-05-14T03:14:56;10.90;82.30
57282;DHT22;43129;52.628;10.098;2023-05-14T03:17:22;10.80;82.80
57282;DHT22;43129;52.628;10.098;2023-05-14T03:19:47;10.80;83.30
57282;DHT22;43129;52.628;10.098;2023-05-14T03:22:13;10.80;83.60
57282;DHT22;43129;52.628;10.098;2023-05-14T03:24:41;10.80;84.00
57282;DHT22;43129;52.628;10.098;2023-05-14T03:27:07;10.70;83.90
57282;DHT22;43129;52.628;10.098;2023-05-14T03:29:35;10.70;84.00
57282;DHT22;43129;52.628;10.098;2023-05-14T03:32:00;10.70;84.10
57282;DHT22;43129;52.628;10.098;2023-05-14T03:34:28;10.80;84.60
57282;DHT22;43129;52.628;10.098;2023-05-14T03:36:54;10.80;84.30
57282;DHT22;43129;52.628;10.098;2023-05-14T03:39:22;10.80;84.50
57282;DHT22;43129;52.628;10.098;2023-05-14T03:41:50;10.80;84.10
57282;DHT22;43129;52.628;10.098;2023-05-14T03:44:16;10.90;84.20
57282;DHT22;43129;52.628;10.098;2023-05-14T03:46:44;10.90;84.90
57282;DHT22;43129;52.628;10.098;2023-05-14T03:49:12;10.90;83.70
57282;DHT22;43129;52.628;10.098;2023-05-14T03:51:40;10.90;83.40
57282;DHT22;43129;52.628;10.098;2023-05-14T03:54:08;10.90;82.90
57282;DHT22;43129;52.628;10.098;2023-05-14T03:56:36;10.90;83.10
57282;DHT22;43129;52.628;10.098;2023-05-14T03:59:02;10.80;83.30
57282;DHT22;43129;52.628;10.098;2023-05-14T04:01:30;10.80;83.50
57282;DHT22;43129;52.628;10.098;2023-05-14T04:03:58;10.80;83.40
57282;DHT22;43129;52.628;10.098;2023-05-14T04:06:25;10.80;83.90
57282;DHT22;43129;52.628;10.098;2023-05-14T04:08:54;10.70;84.00
57282;DHT22;43129;52.628;10.098;2023-05-14T04:11:22;10.60;84.60
57282;DHT22;43129;52.628;10.098;2023-05-14T04:13:47;10.70;84.60
57282;DHT22;43129;52.628;10.098;2023-05-14T04:16:18;10.70;84.60
57282;DHT22;43129;52.628;10.098;2023-05-14T04:18:46;10.60;84.50
57282;DHT22;43129;52.628;10.098;2023-05-14T04:21:15;10.60;84.60
57282;DHT22;43129;52.628;10.098;2023-05-14T04:23:43;10.70;85.10
57282;DHT22;43129;52.628;10.098;2023-05-14T04:26:08;10.70;85.20
57282;DHT22;43129;52.628;10.098;2023-05-14T04:28:36;10.70;85.50
57282;DHT22;43129;52.628;10.098;2023-05-14T04:31:07;10.80;85.30
57282;DHT22;43129;52.628;10.098;2023-05-14T04:33:32;10.80;85.00
57282;DHT22;43129;52.628;10.098;2023-05-14T04:36:00;11.00;84.50
57282;DHT22;43129;52.628;10.098;2023-05-14T04:38:30;11.10;83.70
57282;DHT22;43129;52.628;10.098;2023-05-14T04:40:56;11.10;83.90
57282;DHT22;43129;52.628;10.098;2023-05-14T04:43:22;11.10;83.80
57282;DHT22;43129;52.628;10.098;2023-05-14T04:45:48;11.20;83.80
57282;DHT22;43129;52.628;10.098;2023-05-14T04:48:14;11.20;83.20
57282;DHT22;43129;52.628;10.098;2023-05-14T04:50:42;11.20;83.10
57282;DHT22;43129;52.628;10.098;2023-05-14T04:53:09;11.30;83.00
57282;DHT22;43129;52.628;10.098;2023-05-14T04:55:35;11.30;82.40
57282;DHT22;43129;52.628;10.098;2023-05-14T04:58:02;11.30;82.00
57282;DHT22;43129;52.628;10.098;2023-05-14T05:00:30;11.30;81.90
57282;DHT22;43129;52.628;10.098;2023-05-14T05:03:00;11.40;81.80
57282;DHT22;43129;52.628;10.098;2023-05-14T05:05:30;11.50;82.10
57282;DHT22;43129;52.628;10.098;2023-05-14T05:07:56;11.60;81.70
57282;DHT22;43129;52.628;10.098;2023-05-14T05:10:24;11.70;81.30
57282;DHT22;43129;52.628;10.098;2023-05-14T05:12:49;11.70;81.10
57282;DHT22;43129;52.628;10.098;2023-05-14T05:15:18;11.80;80.80
57282;DHT22;43129;52.628;10.098;2023-05-14T05:17:43;12.00;80.90
57282;DHT22;43129;52.628;10.098;2023-05-14T05:20:09;12.10;80.80
57282;DHT22;43129;52.628;10.098;2023-05-14T05:22:35;12.20;80.00
57282;DHT22;43129;52.628;10.098;2023-05-14T05:25:03;12.30;79.10
57282;DHT22;43129;52.628;10.098;2023-05-14T05:27:33;12.40;78.20
57282;DHT22;43129;52.628;10.098;2023-05-14T05:30:01;12.60;77.60
57282;DHT22;43129;52.628;10.098;2023-05-14T05:32:28;12.60;77.40
57282;DHT22;43129;52.628;10.098;2023-05-14T05:34:56;12.70;77.10
57282;DHT22;43129;52.628;10.098;2023-05-14T05:37:24;12.90;77.30
57282;DHT22;43129;52.628;10.098;2023-05-14T05:39:50;12.90;76.30
57282;DHT22;43129;52.628;10.098;2023-05-14T05:42:15;13.00;75.50
57282;DHT22;43129;52.628;10.098;2023-05-14T05:44:41;13.10;74.90
57282;DHT22;43129;52.628;10.098;2023-05-14T05:47:07;13.20;74.70
57282;DHT22;43129;52.628;10.098;2023-05-14T05:49:34;13.30;74.40
57282;DHT22;43129;52.628;10.098;2023-05-14T05:52:02;13.40;74.30
57282;DHT22;43129;52.628;10.098;2023-05-14T05:54:29;13.50;73.90
57282;DHT22;43129;52.628;10.098;2023-05-14T05:56:56;13.70;73.70
57282;DHT22;43129;52.628;10.098;2023-05-14T05:59:23;13.80;73.60
57282;DHT22;43129;52.628;10.098;2023-05-14T06:01:53;13.90;72.30
57282;DHT22;43129;52.628;10.098;2023-05-14T06:04:19;14.10;72.00
57282;DHT22;43129;52.628;10.098;2023-05-14T06:06:44;14.20;71.50
57282;DHT22;43129;52.628;10.098;2023-05-14T06:09:10;14.30;71.30
57282;DHT22;43129;52.628;10.098;2023-05-14T06:11:40;14.40;71.20
57282;DHT22;43129;52.628;10.098;2023-05-14T06:14:08;14.60;70.50
57282;DHT22;43129;52.628;10.098;2023-05-14T06:16:34;14.70;70.20
57282;DHT22;43129;52.628;10.098;2023-05-14T06:19:00;14.80;69.10
57282;DHT22;43129;52.628;10.098;2023-05-14T06:21:26;14.90;69.10
57282;DHT22;43129;52.628;10.098;2023-05-14T06:23:52;15.00;69.30
57282;DHT22;43129;52.628;10.098;2023-05-14T06:26:22;15.10;69.30
57282;DHT22;43129;52.628;10.098;2023-05-14T06:28:48;15.10;67.80
57282;DHT22;43129;52.628;10.098;2023-05-14T06:31:13;15.30;67.50
57282;DHT22;43129;52.628;10.098;2023-05-14T06:33:39;15.40;67.10
57282;DHT22;43129;52.628;10.098;2023-05-14T06:36:06;15.60;66.00
57282;DHT22;43129;52.628;10.098;2023-05-14T06:38:35;15.70;66.60
57282;DHT22;43129;52.628;10.098;2023-05-14T06:41:03;15.90;65.60
57282;DHT22;43129;52.628;10.098;2023-05-14T06:43:31;16.10;63.50
57282;DHT22;43129;52.628;10.098;2023-05-14T06:45:56;16.10;62.30
57282;DHT22;43129;52.628;10.098;2023-05-14T06:48:22;16.20;61.60
57282;DHT22;43129;52.628;10.098;2023-05-14T06:50:48;16.30;62.60
57282;DHT22;43129;52.628;10.098;2023-05-14T06:53:16;16.40;61.80
57282;DHT22;43129;52.628;10.098;2023-05-14T06:55:46;16.60;61.60
57282;DHT22;43129;52.628;10.098;2023-05-14T06:58:12;16.70;61.00
57282;DHT22;43129;52.628;10.098;2023-05-14T07:00:38;16.80;60.80
57282;DHT22;43129;52.628;10.098;2023-05-14T07:03:09;16.90;60.70
57282;DHT22;43129;52.628;10.098;2023-05-14T07:05:36;17.10;59.90
57282;DHT22;43129;52.628;10.098;2023-05-14T07:08:05;17.40;60.00
57282;DHT22;43129;52.628;10.098;2023-05-14T07:10:31;17.70;57.80
57282;DHT22;43129;52.628;10.098;2023-05-14T07:12:57;17.70;57.10
57282;DHT22;43129;52.628;10.098;2023-05-14T07:15:23;17.90;57.50
57282;DHT22;43129;52.628;10.098;2023-05-14T07:17:51;18.10;57.10
57282;DHT22;43129;52.628;10.098;2023-05-14T07:20:17;18.20;56.20
57282;DHT22;43129;52.628;10.098;2023-05-14T07:22:42;18.30;56.60
57282;DHT22;43129;52.628;10.098;2023-05-14T07:25:08;18.30;55.30
57282;DHT22;43129;52.628;10.098;2023-05-14T07:27:39;18.20;55.40
57282;DHT22;43129;52.628;10.098;2023-05-14T07:30:09;18.10;56.20
57282;DHT22;43129;52.628;10.098;2023-05-14T07:32:35;17.90;57.10
57282;DHT22;43129;52.628;10.098;2023-05-14T07:35:03;17.60;57.40
57282;DHT22;43129;52.628;10.098;2023-05-14T07:37:31;17.60;58.60
57282;DHT22;43129;52.628;10.098;2023-05-14T07:39:56;17.80;58.00
57282;DHT22;43129;52.628;10.098;2023-05-14T07:42:22;18.30;57.00
57282;DHT22;43129;52.628;10.098;2023-05-14T07:44:48;19.10;54.90
57282;DHT22;43129;52.628;10.098;2023-05-14T07:47:15;19.70;53.50
57282;DHT22;43129;52.628;10.098;2023-05-14T07:49:40;20.20;51.60
57282;DHT22;43129;52.628;10.098;2023-05-14T07:52:06;20.70;51.30
57282;DHT22;43129;52.628;10.098;2023-05-14T07:54:33;20.80;49.10
57282;DHT22;43129;52.628;10.098;2023-05-14T07:57:01;21.50;48.70
57282;DHT22;43129;52.628;10.098;2023-05-14T07:59:26;21.60;47.60
57282;DHT22;43129;52.628;10.098;2023-05-14T08:01:54;21.90;46.80
57282;DHT22;43129;52.628;10.098;2023-05-14T08:04:21;22.20;44.70
57282;DHT22;43129;52.628;10.098;2023-05-14T08:06:48;22.00;43.40
57282;DHT22;43129;52.628;10.098;2023-05-14T08:09:13;22.20;44.00
57282;DHT22;43129;52.628;10.098;2023-05-14T08:11:41;22.30;42.50
57282;DHT22;43129;52.628;10.098;2023-05-14T08:14:07;22.60;43.60
57282;DHT22;43129;52.628;10.098;2023-05-14T08:16:35;22.80;41.60
57282;DHT22;43129;52.628;10.098;2023-05-14T08:19:03;22.30;42.70
57282;DHT22;43129;52.628;10.098;2023-05-14T08:21:31;22.50;40.60
57282;DHT22;43129;52.628;10.098;2023-05-14T08:23:59;22.80;41.90
57282;DHT22;43129;52.628;10.098;2023-05-14T08:26:25;22.90;41.20
57282;DHT22;43129;52.628;10.098;2023-05-14T08:28:52;23.10;41.20
57282;DHT22;43129;52.628;10.098;2023-05-14T08:31:18;23.40;41.10
57282;DHT22;43129;52.628;10.098;2023-05-14T08:33:45;23.10;40.50
57282;DHT22;43129;52.628;10.098;2023-05-14T08:36:11;23.20;41.00
57282;DHT22;43129;52.628;10.098;2023-05-14T08:38:37;23.50;40.70
57282;DHT22;43129;52.628;10.098;2023-05-14T08:41:05;23.00;38.70
57282;DHT22;43129;52.628;10.098;2023-05-14T08:43:47;23.10;37.80
57282;DHT22;43129;52.628;10.098;2023-05-14T08:46:23;23.30;38.80
57282;DHT22;43129;52.628;10.098;2023-05-14T08:49:07;23.60;39.70
57282;DHT22;43129;52.628;10.098;2023-05-14T08:51:37;23.50;38.90
57282;DHT22;43129;52.628;10.098;2023-05-14T08:54:05;23.50;38.70
57282;DHT22;43129;52.628;10.098;2023-05-14T08:56:34;22.80;40.10
57282;DHT22;43129;52.628;10.098;2023-05-14T08:59:03;22.90;39.10
57282;DHT22;43129;52.628;10.098;2023-05-14T09:01:31;23.20;39.00
57282;DHT22;43129;52.628;10.098;2023-05-14T09:03:59;23.20;38.90
57282;DHT22;43129;52.628;10.098;2023-05-14T09:06:31;23.80;39.10
57282;DHT22;43129;52.628;10.098;2023-05-14T09:08:57;25.10;38.00
57282;DHT22;43129;52.628;10.098;2023-05-14T09:11:23;24.90;35.60
57282;DHT22;43129;52.628;10.098;2023-05-14T09:13:49;24.90;36.50
57282;DHT22;43129;52.628;10.098;2023-05-14T09:16:17;25.60;36.00
57282;DHT22;43129;52.628;10.098;2023-05-14T09:18:44;25.50;34.50
57282;DHT22;43129;52.628;10.098;2023-05-14T09:21:13;25.90;34.20
57282;DHT22;43129;52.628;10.098;2023-05-14T09:23:42;26.30;32.60
57282;DHT22;43129;52.628;10.098;2023-05-14T09:26:09;26.50;32.70
57282;DHT22;43129;52.628;10.098;2023-05-14T09:28:34;26.20;30.50
57282;DHT22;43129;52.628;10.098;2023-05-14T09:31:03;25.90;30.30
57282;DHT22;43129;52.628;10.098;2023-05-14T09:33:29;26.60;31.30
57282;DHT22;43129;52.628;10.098;2023-05-14T09:36:01;26.00;30.30
57282;DHT22;43129;52.628;10.098;2023-05-14T09:38:28;25.90;31.70
57282;DHT22;43129;52.628;10.098;2023-05-14T09:40:54;25.80;30.90
57282;DHT22;43129;52.628;10.098;2023-05-14T09:43:25;26.20;31.20
57282;DHT22;43129;52.628;10.098;2023-05-14T09:45:53;26.70;30.20
57282;DHT22;43129;52.628;10.098;2023-05-14T09:48:19;26.20;30.30
57282;DHT22;43129;52.628;10.098;2023-05-14T09:50:45;25.50;31.50
57282;DHT22;43129;52.628;10.098;2023-05-14T09:53:14;25.10;32.60
57282;DHT22;43129;52.628;10.098;2023-05-14T09:55:39;25.40;33.10
57282;DHT22;43129;52.628;10.098;2023-05-14T09:58:06;26.40;32.00
57282;DHT22;43129;52.628;10.098;2023-05-14T10:00:34;26.60;30.20
57282;DHT22;43129;52.628;10.098;2023-05-14T10:03:12;26.80;30.10
57282;DHT22;43129;52.628;10.098;2023-05-14T10:05:40;27.30;29.50
57282;DHT22;43129;52.628;10.098;2023-05-14T10:08:13;27.70;28.60
57282;DHT22;43129;52.628;10.098;2023-05-14T10:10:41;27.70;29.20
57282;DHT22;43129;52.628;10.098;2023-05-14T10:13:13;27.30;30.20
57282;DHT22;43129;52.628;10.098;2023-05-14T10:15:41;27.30;30.20
57282;DHT22;43129;52.628;10.098;2023-05-14T10:18:12;27.90;30.20
57282;DHT22;43129;52.628;10.098;2023-05-14T10:20:40;28.20;29.20
57282;DHT22;43129;52.628;10.098;2023-05-14T10:23:06;27.50;29.40
57282;DHT22;43129;52.628;10.098;2023-05-14T10:25:35;27.50;29.60
57282;DHT22;43129;52.628;10.098;2023-05-14T10:28:03;27.30;29.40
57282;DHT22;43129;52.628;10.098;2023-05-14T10:30:31;28.00;29.80
57282;DHT22;43129;52.628;10.098;2023-05-14T10:33:11;27.60;30.40
57282;DHT22;43129;52.628;10.098;2023-05-14T10:35:50;28.30;28.20
57282;DHT22;43129;52.628;10.098;2023-05-14T10:38:27;26.30;28.60
57282;DHT22;43129;52.628;10.098;2023-05-14T10:41:02;25.50;30.80
57282;DHT22;43129;52.628;10.098;2023-05-14T10:43:36;24.60;32.70
57282;DHT22;43129;52.628;10.098;2023-05-14T10:46:01;25.30;35.00
57282;DHT22;43129;52.628;10.098;2023-05-14T10:48:31;26.60;32.20
57282;DHT22;43129;52.628;10.098;2023-05-14T10:51:02;27.90;30.00
57282;DHT22;43129;52.628;10.098;2023-05-14T10:53:39;28.50;28.40
57282;DHT22;43129;52.628;10.098;2023-05-14T10:56:12;29.60;25.40
57282;DHT22;43129;52.628;10.098;2023-05-14T10:58:42;28.20;26.40
57282;DHT22;43129;52.628;10.098;2023-05-14T11:01:10;29.10;26.70
57282;DHT22;43129;52.628;10.098;2023-05-14T11:03:43;30.30;25.50
57282;DHT22;43129;52.628;10.098;2023-05-14T11:06:15;29.30;23.10
57282;DHT22;43129;52.628;10.098;2023-05-14T11:08:41;29.50;23.70
57282;DHT22;43129;52.628;10.098;2023-05-14T11:11:08;29.00;23.90
57282;DHT22;43129;52.628;10.098;2023-05-14T11:13:33;29.00;24.00
57282;DHT22;43129;52.628;10.098;2023-05-14T11:16:00;27.60;25.30
57282;DHT22;43129;52.628;10.098;2023-05-14T11:18:30;28.20;25.70
57282;DHT22;43129;52.628;10.098;2023-05-14T11:20:58;27.90;26.50
57282;DHT22;43129;52.628;10.098;2023-05-14T11:23:24;28.40;26.10
57282;DHT22;43129;52.628;10.098;2023-05-14T11:25:54;27.60;26.30
57282;DHT22;43129;52.628;10.098;2023-05-14T11:28:24;27.40;26.40
57282;DHT22;43129;52.628;10.098;2023-05-14T11:30:53;27.10;26.60
57282;DHT22;43129;52.628;10.098;2023-05-14T11:33:19;26.40;27.90
57282;DHT22;43129;52.628;10.098;2023-05-14T11:35:46;26.00;28.80
57282;DHT22;43129;52.628;10.098;2023-05-14T11:38:17;25.10;29.40
57282;DHT22;43129;52.628;10.098;2023-05-14T11:40:59;24.70;29.90
57282;DHT22;43129;52.628;10.098;2023-05-14T11:43:25;24.10;31.30
57282;DHT22;43129;52.628;10.098;2023-05-14T11:45:54;23.50;32.60
57282;DHT22;43129;52.628;10.098;2023-05-14T11:48:21;23.30;33.50
57282;DHT22;43129;52.628;10.098;2023-05-14T11:50:48;23.30;33.50
57282;DHT22;43129;52.628;10.098;2023-05-14T11:53:19;23.10;32.60
57282;DHT22;43129;52.628;10.098;2023-05-14T11:55:49;22.70;31.50
57282;DHT22;43129;52.628;10.098;2023-05-14T11:58:19;22.80;33.20
57282;DHT22;43129;52.628;10.098;2023-05-14T12:00:45;22.80;32.70
57282;DHT22;43129;52.628;10.098;2023-05-14T12:03:14;23.20;33.10
57282;DHT22;43129;52.628;10.098;2023-05-14T12:05:40;23.80;31.60
57282;DHT22;43129;52.628;10.098;2023-05-14T12:08:46;24.50;30.00
57282;DHT22;43129;52.628;10.098;2023-05-14T12:11:14;25.60;29.10
57282;DHT22;43129;52.628;10.098;2023-05-14T12:13:47;27.00;27.50
57282;DHT22;43129;52.628;10.098;2023-05-14T12:16:13;27.00;27.00
57282;DHT22;43129;52.628;10.098;2023-05-14T12:18:38;27.70;26.60
57282;DHT22;43129;52.628;10.098;2023-05-14T12:21:05;27.80;25.50
57282;DHT22;43129;52.628;10.098;2023-05-14T12:23:33;28.40;24.00
57282;DHT22;43129;52.628;10.098;2023-05-14T12:26:06;28.20;24.40
57282;DHT22;43129;52.628;10.098;2023-05-14T12:28:34;28.50;24.90
57282;DHT22;43129;52.628;10.098;2023-05-14T12:31:03;27.90;24.80
57282;DHT22;43129;52.628;10.098;2023-05-14T12:33:28;27.00;26.60
57282;DHT22;43129;52.628;10.098;2023-05-14T12:35:56;25.70;29.90
57282;DHT22;43129;52.628;10.098;2023-05-14T12:38:26;24.10;32.50
57282;DHT22;43129;52.628;10.098;2023-05-14T12:40:52;22.60;35.40
57282;DHT22;43129;52.628;10.098;2023-05-14T12:43:18;21.70;36.30
57282;DHT22;43129;52.628;10.098;2023-05-14T12:45:43;21.40;37.40
57282;DHT22;43129;52.628;10.098;2023-05-14T12:48:11;20.70;41.10
57282;DHT22;43129;52.628;10.098;2023-05-14T12:50:37;19.90;45.70
57282;DHT22;43129;52.628;10.098;2023-05-14T12:53:03;19.40;47.80
57282;DHT22;43129;52.628;10.098;2023-05-14T12:55:30;18.90;49.40
57282;DHT22;43129;52.628;10.098;2023-05-14T12:57:58;18.60;50.40
57282;DHT22;43129;52.628;10.098;2023-05-14T13:00:26;18.40;51.80
57282;DHT22;43129;52.628;10.098;2023-05-14T13:02:52;18.30;49.30
57282;DHT22;43129;52.628;10.098;2023-05-14T13:05:17;18.30;51.10
57282;DHT22;43129;52.628;10.098;2023-05-14T13:07:43;18.30;52.90
57282;DHT22;43129;52.628;10.098;2023-05-14T13:10:11;18.20;57.80
57282;DHT22;43129;52.628;10.098;2023-05-14T13:12:37;18.50;60.60
57282;DHT22;43129;52.628;10.098;2023-05-14T13:15:03;18.60;56.50
57282;DHT22;43129;52.628;10.098;2023-05-14T13:17:29;18.70;53.10
57282;DHT22;43129;52.628;10.098;2023-05-14T13:19:55;19.00;50.60
57282;DHT22;43129;52.628;10.098;2023-05-14T13:22:25;19.20;49.30
57282;DHT22;43129;52.628;10.098;2023-05-14T13:24:53;19.50;47.60
57282;DHT22;43129;52.628;10.098;2023-05-14T13:27:18;19.70;43.30
57282;DHT22;43129;52.628;10.098;2023-05-14T13:29:44;19.80;38.40
57282;DHT22;43129;52.628;10.098;2023-05-14T13:32:10;20.00;41.10
57282;DHT22;43129;52.628;10.098;2023-05-14T13:34:37;20.10;38.20
57282;DHT22;43129;52.628;10.098;2023-05-14T13:37:05;20.40;39.00
57282;DHT22;43129;52.628;10.098;2023-05-14T13:39:34;20.60;37.50
57282;DHT22;43129;52.628;10.098;2023-05-14T13:41:59;20.60;41.40
57282;DHT22;43129;52.628;10.098;2023-05-14T13:44:25;20.70;45.30
57282;DHT22;43129;52.628;10.098;2023-05-14T13:46:54;21.10;44.90
57282;DHT22;43129;52.628;10.098;2023-05-14T13:49:20;21.40;43.90
57282;DHT22;43129;52.628;10.098;2023-05-14T13:51:45;21.40;42.00
57282;DHT22;43129;52.628;10.098;2023-05-14T13:54:13;21.80;39.30
57282;DHT22;43129;52.628;10.098;2023-05-14T13:56:39;21.90;40.50
57282;DHT22;43129;52.628;10.098;2023-05-14T13:59:05;22.40;39.40
57282;DHT22;43129;52.628;10.098;2023-05-14T14:01:31;22.50;38.60
57282;DHT22;43129;52.628;10.098;2023-05-14T14:03:59;22.30;41.10
57282;DHT22;43129;52.628;10.098;2023-05-14T14:06:25;22.10;39.40
57282;DHT22;43129;52.628;10.098;2023-05-14T14:08:51;21.80;40.40
57282;DHT22;43129;52.628;10.098;2023-05-14T14:11:20;21.70;39.80
57282;DHT22;43129;52.628;10.098;2023-05-14T14:13:51;21.70;40.50
57282;DHT22;43129;52.628;10.098;2023-05-14T14:16:18;21.70;41.80
57282;DHT22;43129;52.628;10.098;2023-05-14T14:18:44;21.80;39.60
57282;DHT22;43129;52.628;10.098;2023-05-14T14:21:14;21.90;40.20
57282;DHT22;43129;52.628;10.098;2023-05-14T14:23:44;21.90;40.10
57282;DHT22;43129;52.628;10.098;2023-05-14T14:26:09;22.10;38.40
57282;DHT22;43129;52.628;10.098;2023-05-14T14:28:38;22.40;38.70
57282;DHT22;43129;52.628;10.098;2023-05-14T14:31:04;22.60;39.00
57282;DHT22;43129;52.628;10.098;2023-05-14T14:33:30;23.10;37.90
57282;DHT22;43129;52.628;10.098;2023-05-14T14:35:58;23.20;36.90
57282;DHT22;43129;52.628;10.098;2023-05-14T14:38:23;23.20;35.10
57282;DHT22;43129;52.628;10.098;2023-05-14T14:40:49;22.70;36.00
57282;DHT22;43129;52.628;10.098;2023-05-14T14:43:17;22.60;37.30
57282;DHT22;43129;52.628;10.098;2023-05-14T14:45:45;22.50;38.60
57282;DHT22;43129;52.628;10.098;2023-05-14T14:48:27;22.00;39.10
57282;DHT22;43129;52.628;10.098;2023-05-14T14:50:54;21.80;40.60
57282;DHT22;43129;52.628;10.098;2023-05-14T14:53:21;21.80;40.60
57282;DHT22;43129;52.628;10.098;2023-05-14T14:55:47;21.60;41.40
57282;DHT22;43129;52.628;10.098;2023-05-14T14:58:16;21.40;41.70
57282;DHT22;43129;52.628;10.098;2023-05-14T15:00:44;21.40;41.40
57282;DHT22;43129;52.628;10.098;2023-05-14T15:03:13;21.40;42.00
57282;DHT22;43129;52.628;10.098;2023-05-14T15:05:39;21.30;42.80
57282;DHT22;43129;52.628;10.098;2023-05-14T15:08:04;21.10;42.90
57282;DHT22;43129;52.628;10.098;2023-05-14T15:10:31;21.10;42.70
57282;DHT22;43129;52.628;10.098;2023-05-14T15:12:57;21.00;42.70
57282;DHT22;43129;52.628;10.098;2023-05-14T15:15:24;20.90;42.50
57282;DHT22;43129;52.628;10.098;2023-05-14T15:17:52;20.80;43.20
57282;DHT22;43129;52.628;10.098;2023-05-14T15:20:17;20.90;43.70
57282;DHT22;43129;52.628;10.098;2023-05-14T15:22:43;21.00;44.70
57282;DHT22;43129;52.628;10.098;2023-05-14T15:25:17;20.90;44.20
57282;DHT22;43129;52.628;10.098;2023-05-14T15:27:43;20.90;42.90